Time;durP1;ratioP1;P1;durP2;ratioP2;P2;SDS_P1;SDS_P2;PMS_P1;PMS_P2;Temp;Humidity;BMP_temperature;BMP_pressure;BME280_temperature;BME280_humidity;BME280_pressure;Samples;Min_cycle;Max_cycle;Signal;HPM_P1;HPM_P2
2023/05/21 00:02:18;;;;;;;11.80;8.63;;;;;;;;;;5090090;28;20052;-78
2023/05/21 00:04:45;;;;;;;12.00;8.10;;;;;;;;;;5089860;28;20411;-79
2023/05/21 00:07:11;;;;;;;9.27;8.57;;;;;;;;;;5072269;28;20048;-78
2023/05/21 00:09:37;;;;;;;9.10;7.97;;;;;;;;;;5072158;28;20036;-78
2023/05/21 00:12:04;;;;;;;8.98;7.93;;;;;;;;;;5089927;28;20044;-78
2023/05/21 00:14:30;;;;;;;8.45;7.75;;;;;;;;;;5072133;28;20036;-78
2023/05/21 00:16:56;;;;;;;9.75;8.90;;;;;;;;;;5071799;28;20043;-78
2023/05/21 00:19:23;;;;;;;8.95;8.07;;;;;;;;;;5090112;28;20036;-79
2023/05/21 00:21:49;;;;;;;9.18;7.82;;;;;;;;;;5071705;28;20094;-79
2023/05/21 00:24:15;;;;;;;8.68;7.82;;;;;;;;;;5055309;28;20412;-79
2023/05/21 00:26:41;;;;;;;17.27;8.18;;;;;;;;;;5090186;28;20048;-78
2023/05/21 00:29:07;;;;;;;9.95;8.13;;;;;;;;;;5072536;28;20064;-78
2023/05/21 00:31:34;;;;;;;8.90;8.25;;;;;;;;;;5072339;28;20529;-78
2023/05/21 00:34:00;;;;;;;8.73;8.02;;;;;;;;;;5055631;28;20055;-78
2023/05/21 00:36:29;;;;;;;8.95;8.15;;;;;;;;;;5090114;28;20123;-79
2023/05/21 00:38:55;;;;;;;9.27;8.48;;;;;;;;;;5071888;28;20051;-77
2023/05/21 00:41:21;;;;;;;9.85;8.95;;;;;;;;;;5091340;28;20530;-78
2023/05/21 00:43:49;;;;;;;9.65;8.93;;;;;;;;;;5093309;28;20229;-78
2023/05/21 00:46:16;;;;;;;10.38;9.48;;;;;;;;;;5080114;28;20577;-78
2023/05/21 00:48:43;;;;;;;10.48;9.70;;;;;;;;;;5073969;28;20078;-78
2023/05/21 00:51:09;;;;;;;10.52;9.73;;;;;;;;;;5090583;28;20067;-78
2023/05/21 00:53:35;;;;;;;10.68;9.68;;;;;;;;;;5058883;28;20040;-76
2023/05/21 00:56:01;;;;;;;10.45;9.65;;;;;;;;;;5078616;28;20078;-78
2023/05/21 00:58:28;;;;;;;11.32;10.43;;;;;;;;;;5084929;28;20044;-77
2023/05/21 01:00:55;;;;;;;11.55;10.35;;;;;;;;;;5067769;28;20040;-77
2023/05/21 01:03:21;;;;;;;11.68;10.50;;;;;;;;;;5074711;28;20055;-77
2023/05/21 01:05:49;;;;;;;11.70;10.60;;;;;;;;;;5055015;28;20127;-77
2023/05/21 01:08:15;;;;;;;11.45;10.48;;;;;;;;;;5071922;28;20044;-77
2023/05/21 01:10:41;;;;;;;11.20;10.30;;;;;;;;;;5071568;28;20036;-78
2023/05/21 01:13:07;;;;;;;12.88;11.68;;;;;;;;;;5074775;28;20040;-77
2023/05/21 01:15:34;;;;;;;12.80;11.70;;;;;;;;;;5093069;28;20047;-78
2023/05/21 01:18:00;;;;;;;13.63;11.85;;;;;;;;;;5074788;28;20052;-77
2023/05/21 01:20:26;;;;;;;14.70;11.50;;;;;;;;;;5093009;28;20126;-77
2023/05/21 01:22:55;;;;;;;11.85;10.80;;;;;;;;;;5058013;28;20538;-77
2023/05/21 01:25:23;;;;;;;13.18;12.05;;;;;;;;;;5093676;28;20093;-78
2023/05/21 01:27:49;;;;;;;14.35;13.13;;;;;;;;;;5076643;28;20043;-78
2023/05/21 01:30:17;;;;;;;13.23;11.80;;;;;;;;;;5075646;28;20047;-77
2023/05/21 01:33:21;;;;;;;16.15;14.27;;;;;;;;;;5075347;28;20048;-77
2023/05/21 01:35:59;;;;;;;13.98;12.57;;;;;;;;;;4990575;28;20538;-77
2023/05/21 01:38:25;;;;;;;17.55;15.68;;;;;;;;;;4974891;28;20049;-76
2023/05/21 01:40:53;;;;;;;17.15;15.38;;;;;;;;;;5052530;28;20024;-76
2023/05/21 01:43:19;;;;;;;18.90;16.38;;;;;;;;;;5057813;28;20056;-78
2023/05/21 01:45:45;;;;;;;24.27;18.15;;;;;;;;;;5074603;28;20453;-77
2023/05/21 01:48:11;;;;;;;19.55;17.50;;;;;;;;;;5092286;28;20052;-77
2023/05/21 01:50:38;;;;;;;19.52;17.38;;;;;;;;;;5057817;28;20036;-78
2023/05/21 01:53:04;;;;;;;20.55;17.67;;;;;;;;;;5074201;28;20044;-77
2023/05/21 01:55:31;;;;;;;18.65;16.60;;;;;;;;;;5092146;28;20051;-77
2023/05/21 01:57:57;;;;;;;21.80;16.05;;;;;;;;;;5074212;28;20072;-77
2023/05/21 02:00:23;;;;;;;18.98;16.50;;;;;;;;;;5057714;28;20040;-79
2023/05/21 02:02:49;;;;;;;17.80;16.05;;;;;;;;;;5092319;28;20143;-79
2023/05/21 02:05:15;;;;;;;20.52;16.52;;;;;;;;;;5074398;28;20449;-79
2023/05/21 02:07:42;;;;;;;17.58;15.82;;;;;;;;;;5074178;28;20515;-79
2023/05/21 02:10:08;;;;;;;18.60;15.88;;;;;;;;;;5074088;28;20028;-78
2023/05/21 02:12:35;;;;;;;16.20;14.63;;;;;;;;;;5074218;28;20142;-79
2023/05/21 02:15:01;;;;;;;18.05;15.57;;;;;;;;;;5092705;28;20032;-78
2023/05/21 02:17:37;;;;;;;19.60;17.25;;;;;;;;;;5059639;28;20325;-79
2023/05/21 02:20:10;;;;;;;19.30;17.40;;;;;;;;;;5075759;28;20042;-78
2023/05/21 02:22:40;;;;;;;17.05;15.25;;;;;;;;;;5075752;28;20196;-80
2023/05/21 02:25:06;;;;;;;15.88;14.43;;;;;;;;;;5076895;28;20093;-78
2023/05/21 02:27:33;;;;;;;16.60;14.30;;;;;;;;;;5078413;28;20555;-81
2023/05/21 02:30:00;;;;;;;20.60;16.80;;;;;;;;;;5080924;28;20048;-79
2023/05/21 02:32:26;;;;;;;20.23;15.95;;;;;;;;;;5060988;28;20072;-81
2023/05/21 02:34:52;;;;;;;17.27;14.63;;;;;;;;;;5100519;28;20044;-79
2023/05/21 02:37:19;;;;;;;16.70;14.57;;;;;;;;;;5102135;28;20044;-79
2023/05/21 02:39:45;;;;;;;18.50;14.27;;;;;;;;;;5081822;28;20067;-81
2023/05/21 02:42:11;;;;;;;20.27;15.48;;;;;;;;;;5076396;28;20048;-80
2023/05/21 02:44:37;;;;;;;17.88;15.10;;;;;;;;;;5076599;28;20048;-80
2023/05/21 02:47:03;;;;;;;21.23;15.35;;;;;;;;;;5075562;28;20526;-80
2023/05/21 02:49:30;;;;;;;20.63;16.25;;;;;;;;;;5073874;28;20040;-75
2023/05/21 02:51:56;;;;;;;24.02;15.82;;;;;;;;;;5056635;28;20469;-77
2023/05/21 02:54:22;;;;;;;28.48;16.63;;;;;;;;;;5073342;28;20048;-78
2023/05/21 02:56:48;;;;;;;26.15;17.38;;;;;;;;;;5073081;28;20117;-78
2023/05/21 02:59:14;;;;;;;20.65;15.75;;;;;;;;;;5073034;28;20048;-79
2023/05/21 03:01:40;;;;;;;22.17;15.88;;;;;;;;;;5073222;28;20503;-79
2023/05/21 03:04:06;;;;;;;25.27;16.73;;;;;;;;;;5073590;28;20044;-80
2023/05/21 03:06:33;;;;;;;24.77;16.17;;;;;;;;;;5074273;28;20458;-79
2023/05/21 03:09:02;;;;;;;25.17;17.77;;;;;;;;;;5074478;28;20048;-80
2023/05/21 03:11:28;;;;;;;24.88;17.05;;;;;;;;;;5074972;28;20044;-79
2023/05/21 03:13:53;;;;;;;25.42;16.88;;;;;;;;;;5092860;28;20534;-79
2023/05/21 03:16:21;;;;;;;25.95;16.75;;;;;;;;;;5091118;28;20047;-78
2023/05/21 03:18:47;;;;;;;21.50;14.85;;;;;;;;;;5091170;28;20062;-78
2023/05/21 03:21:14;;;;;;;24.85;16.35;;;;;;;;;;5072889;28;20523;-76
2023/05/21 03:23:41;;;;;;;27.60;16.40;;;;;;;;;;5073373;28;20157;-77
2023/05/21 03:26:07;;;;;;;23.73;16.40;;;;;;;;;;5039681;28;20040;-78
2023/05/21 03:28:36;;;;;;;28.88;17.48;;;;;;;;;;5091047;28;20504;-77
2023/05/21 03:31:02;;;;;;;29.40;17.08;;;;;;;;;;5072885;28;20051;-78
2023/05/21 03:34:04;;;;;;;28.80;17.60;;;;;;;;;;5061717;28;20051;-77
2023/05/21 03:36:31;;;;;;;26.98;16.05;;;;;;;;;;5072566;28;20047;-76
2023/05/21 03:38:57;;;;;;;22.42;14.30;;;;;;;;;;5072409;28;20087;-75
2023/05/21 03:41:23;;;;;;;26.05;15.13;;;;;;;;;;5090736;28;20102;-77
2023/05/21 03:43:54;;;;;;;36.22;17.65;;;;;;;;;;5072993;28;20076;-77
2023/05/21 03:46:25;;;;;;;24.65;15.52;;;;;;;;;;5085087;28;20042;-78
2023/05/21 03:49:09;;;;;;;25.17;16.08;;;;;;;;;;5076058;28;20044;-78
2023/05/21 03:51:38;;;;;;;22.92;15.40;;;;;;;;;;5074596;28;20411;-78
2023/05/21 03:54:07;;;;;;;27.40;17.20;;;;;;;;;;5091918;28;20046;-78
2023/05/21 03:56:35;;;;;;;27.13;17.15;;;;;;;;;;5091837;28;20051;-78
2023/05/21 03:59:02;;;;;;;28.80;18.25;;;;;;;;;;5110467;28;20427;-79
2023/05/21 04:01:29;;;;;;;29.17;17.73;;;;;;;;;;5093403;28;20123;-78
2023/05/21 04:03:56;;;;;;;28.45;17.33;;;;;;;;;;5111029;28;20043;-77
2023/05/21 04:06:24;;;;;;;25.67;17.50;;;;;;;;;;5076842;28;20040;-78
2023/05/21 04:08:50;;;;;;;33.17;17.55;;;;;;;;;;5093842;28;20396;-79
2023/05/21 04:11:17;;;;;;;18.65;14.57;;;;;;;;;;5093001;28;20031;-79
2023/05/21 04:13:42;;;;;;;31.13;19.30;;;;;;;;;;5093314;28;20051;-79
2023/05/21 04:16:08;;;;;;;24.83;17.10;;;;;;;;;;5093780;28;20050;-79
2023/05/21 04:18:35;;;;;;;30.10;19.27;;;;;;;;;;5095551;28;20515;-79
2023/05/21 04:21:02;;;;;;;21.48;15.18;;;;;;;;;;5094254;28;20050;-80
2023/05/21 04:23:28;;;;;;;27.63;17.75;;;;;;;;;;5094812;28;20430;-79
2023/05/21 04:25:56;;;;;;;21.80;16.52;;;;;;;;;;5084251;28;20040;-78
2023/05/21 04:28:22;;;;;;;25.95;16.27;;;;;;;;;;5088254;28;20048;-79
2023/05/21 04:30:49;;;;;;;22.70;16.25;;;;;;;;;;5095130;28;20039;-79
2023/05/21 04:33:16;;;;;;;24.40;18.73;;;;;;;;;;5061448;28;20100;-80
2023/05/21 04:35:43;;;;;;;27.63;17.52;;;;;;;;;;5095030;28;20114;-80
2023/05/21 04:38:09;;;;;;;26.02;18.15;;;;;;;;;;5094017;28;20042;-79
2023/05/21 04:40:36;;;;;;;20.67;17.80;;;;;;;;;;5077268;28;20058;-78
2023/05/21 04:43:03;;;;;;;25.92;17.77;;;;;;;;;;5111897;28;20062;-77
2023/05/21 04:45:29;;;;;;;20.98;15.52;;;;;;;;;;5119489;28;20035;-76
2023/05/21 04:47:59;;;;;;;19.25;17.20;;;;;;;;;;5108275;28;20054;-76
2023/05/21 04:50:29;;;;;;;20.60;17.60;;;;;;;;;;5118066;28;20141;-81
2023/05/21 04:52:55;;;;;;;17.73;15.30;;;;;;;;;;5092936;28;20043;-80
2023/05/21 04:55:21;;;;;;;17.40;15.50;;;;;;;;;;5072727;28;20122;-79
2023/05/21 04:57:48;;;;;;;15.32;13.68;;;;;;;;;;5094130;28;20043;-76
2023/05/21 05:00:15;;;;;;;18.58;15.30;;;;;;;;;;5095605;28;20036;-78
2023/05/21 05:02:42;;;;;;;16.00;14.32;;;;;;;;;;5079069;28;20610;-77
2023/05/21 05:05:09;;;;;;;17.80;14.10;;;;;;;;;;5079173;28;20059;-78
2023/05/21 05:07:36;;;;;;;15.02;13.52;;;;;;;;;;5114160;28;20047;-79
2023/05/21 05:10:02;;;;;;;22.30;14.50;;;;;;;;;;5095869;28;20035;-79
2023/05/21 05:12:31;;;;;;;15.65;13.90;;;;;;;;;;5096197;28;20438;-79
2023/05/21 05:14:57;;;;;;;14.80;13.10;;;;;;;;;;5096434;28;20031;-79
2023/05/21 05:17:24;;;;;;;17.13;13.65;;;;;;;;;;5095812;28;20051;-78
2023/05/21 05:19:51;;;;;;;13.35;12.13;;;;;;;;;;5114140;28;20189;-79
2023/05/21 05:22:18;;;;;;;14.35;13.02;;;;;;;;;;5062187;28;20055;-78
2023/05/21 05:24:44;;;;;;;15.57;13.55;;;;;;;;;;5114165;28;20047;-79
2023/05/21 05:27:10;;;;;;;16.23;13.77;;;;;;;;;;5113508;28;20059;-78
2023/05/21 05:29:36;;;;;;;15.60;14.02;;;;;;;;;;5113830;28;20127;-79
2023/05/21 05:32:03;;;;;;;17.05;14.90;;;;;;;;;;5078426;28;20053;-79
2023/05/21 05:34:29;;;;;;;17.77;15.98;;;;;;;;;;5114328;28;20028;-79
2023/05/21 05:36:56;;;;;;;15.30;13.90;;;;;;;;;;5080220;28;20047;-79
2023/05/21 05:39:23;;;;;;;17.10;15.60;;;;;;;;;;5091625;28;20036;-79
2023/05/21 05:41:50;;;;;;;15.82;14.25;;;;;;;;;;5059535;28;20048;-79
2023/05/21 05:44:16;;;;;;;18.20;15.07;;;;;;;;;;5060220;28;20044;-79
2023/05/21 05:46:43;;;;;;;16.63;14.80;;;;;;;;;;5075963;28;20135;-79
2023/05/21 05:49:09;;;;;;;17.20;14.70;;;;;;;;;;5059760;28;20048;-79
2023/05/21 05:51:36;;;;;;;15.50;13.88;;;;;;;;;;5076370;28;20126;-79
2023/05/21 05:54:02;;;;;;;15.27;13.75;;;;;;;;;;5076904;28;20064;-79
2023/05/21 05:56:29;;;;;;;16.90;15.20;;;;;;;;;;5077091;28;20048;-80
2023/05/21 05:58:56;;;;;;;17.15;13.52;;;;;;;;;;5080463;28;20475;-79
2023/05/21 06:01:23;;;;;;;14.52;13.15;;;;;;;;;;5047094;28;20070;-79
2023/05/21 06:03:49;;;;;;;9.10;8.00;;;;;;;;;;5078519;28;20081;-80
2023/05/21 06:06:17;;;;;;;14.98;13.50;;;;;;;;;;5068347;28;20051;-80
2023/05/21 06:08:43;;;;;;;14.52;13.10;;;;;;;;;;5078857;28;20044;-78
2023/05/21 06:11:11;;;;;;;14.90;13.40;;;;;;;;;;5074804;28;20140;-77
2023/05/21 06:13:37;;;;;;;15.98;14.20;;;;;;;;;;5075099;28;20039;-77
2023/05/21 06:16:05;;;;;;;21.55;15.93;;;;;;;;;;5073088;28;20035;-77
2023/05/21 06:18:31;;;;;;;16.02;14.43;;;;;;;;;;5094087;28;20068;-77
2023/05/21 06:20:58;;;;;;;17.95;16.23;;;;;;;;;;5075817;28;20039;-78
2023/05/21 06:23:25;;;;;;;15.05;13.65;;;;;;;;;;5083974;28;20423;-77
2023/05/21 06:25:52;;;;;;;21.45;15.02;;;;;;;;;;5082545;28;20063;-76
2023/05/21 06:28:18;;;;;;;14.52;13.13;;;;;;;;;;5076454;28;20460;-77
2023/05/21 06:30:46;;;;;;;15.38;14.02;;;;;;;;;;5072377;28;20101;-78
2023/05/21 06:33:12;;;;;;;14.85;12.73;;;;;;;;;;5072468;28;20515;-77
2023/05/21 06:35:39;;;;;;;15.45;12.52;;;;;;;;;;5073031;28;20072;-77
2023/05/21 06:38:06;;;;;;;13.95;12.52;;;;;;;;;;5056820;28;20040;-77
2023/05/21 06:40:33;;;;;;;15.45;13.85;;;;;;;;;;5097704;28;20090;-79
2023/05/21 06:42:59;;;;;;;15.05;12.23;;;;;;;;;;5076400;28;20130;-78
2023/05/21 06:45:38;;;;;;;12.98;11.00;;;;;;;;;;5091606;28;20109;-77
2023/05/21 06:48:17;;;;;;;12.90;10.98;;;;;;;;;;5078048;28;20893;-77
2023/05/21 06:50:43;;;;;;;12.05;10.95;;;;;;;;;;5073789;28;20044;-77
2023/05/21 06:53:09;;;;;;;12.07;10.98;;;;;;;;;;5073480;28;20050;-78
2023/05/21 06:55:36;;;;;;;11.45;10.52;;;;;;;;;;5059328;28;20035;-78
2023/05/21 06:58:14;;;;;;;11.48;10.45;;;;;;;;;;5083309;28;20117;-77
2023/05/21 07:00:40;;;;;;;21.73;15.52;;;;;;;;;;5085989;28;20036;-77
2023/05/21 07:03:06;;;;;;;8.63;7.88;;;;;;;;;;5075700;28;20104;-78
2023/05/21 07:05:32;;;;;;;12.90;9.32;;;;;;;;;;5097909;28;20048;-77
2023/05/21 07:07:58;;;;;;;10.45;9.15;;;;;;;;;;5078075;28;20040;-76
2023/05/21 07:10:24;;;;;;;10.80;9.52;;;;;;;;;;5093579;28;20179;-78
2023/05/21 07:12:51;;;;;;;9.55;8.32;;;;;;;;;;5077678;28;20562;-78
2023/05/21 07:15:18;;;;;;;8.13;7.28;;;;;;;;;;5078652;28;20044;-78
2023/05/21 07:17:44;;;;;;;6.35;5.80;;;;;;;;;;5096001;28;20044;-79
2023/05/21 07:20:11;;;;;;;7.50;6.90;;;;;;;;;;5077794;28;20047;-77
2023/05/21 07:22:41;;;;;;;6.50;5.90;;;;;;;;;;5060969;28;20067;-79
2023/05/21 07:25:09;;;;;;;3.78;3.47;;;;;;;;;;5078617;28;20516;-78
2023/05/21 07:27:35;;;;;;;3.95;3.75;;;;;;;;;;5072339;28;20126;-77
2023/05/21 07:30:02;;;;;;;3.50;3.28;;;;;;;;;;5077706;28;20046;-76
2023/05/21 07:32:30;;;;;;;3.63;3.42;;;;;;;;;;5057014;28;20039;-73
2023/05/21 07:34:58;;;;;;;3.22;2.95;;;;;;;;;;5083943;28;20466;-73
2023/05/21 07:37:26;;;;;;;3.67;3.38;;;;;;;;;;5075476;28;20050;-73
2023/05/21 07:39:56;;;;;;;3.97;3.60;;;;;;;;;;5075752;28;20074;-73
2023/05/21 07:42:23;;;;;;;2.63;2.43;;;;;;;;;;5096265;28;20055;-79
2023/05/21 07:44:55;;;;;;;2.80;2.50;;;;;;;;;;5085058;28;20039;-79
2023/05/21 07:47:32;;;;;;;5.47;3.40;;;;;;;;;;5066527;28;20048;-79
2023/05/21 07:49:58;;;;;;;4.18;3.17;;;;;;;;;;5081287;28;20039;-80
2023/05/21 07:52:25;;;;;;;3.00;2.80;;;;;;;;;;5097442;28;20050;-79
2023/05/21 07:54:51;;;;;;;3.35;2.97;;;;;;;;;;5080734;28;20535;-79
2023/05/21 07:57:17;;;;;;;5.20;2.95;;;;;;;;;;5064466;28;20059;-81
2023/05/21 07:59:50;;;;;;;3.40;3.13;;;;;;;;;;5086413;28;20199;-77
2023/05/21 08:02:16;;;;;;;4.20;3.90;;;;;;;;;;5086763;28;20221;-78
2023/05/21 08:04:43;;;;;;;4.13;3.72;;;;;;;;;;5071812;28;20506;-74
2023/05/21 08:07:11;;;;;;;3.70;3.50;;;;;;;;;;5072668;28;20032;-76
2023/05/21 08:09:37;;;;;;;3.53;3.20;;;;;;;;;;5088821;28;20571;-75
2023/05/21 08:12:04;;;;;;;3.95;3.47;;;;;;;;;;5088552;28;20043;-75
2023/05/21 08:14:30;;;;;;;3.70;3.50;;;;;;;;;;5093212;28;20084;-73
2023/05/21 08:16:56;;;;;;;4.85;3.25;;;;;;;;;;5109738;28;20068;-78
2023/05/21 08:19:22;;;;;;;3.22;2.95;;;;;;;;;;5067219;28;20412;-76
2023/05/21 08:21:48;;;;;;;3.10;2.90;;;;;;;;;;5085475;28;20053;-77
2023/05/21 08:24:14;;;;;;;2.90;2.58;;;;;;;;;;5087785;28;20515;-76
2023/05/21 08:26:40;;;;;;;3.15;2.72;;;;;;;;;;5080115;28;20120;-76
2023/05/21 08:29:06;;;;;;;2.47;2.38;;;;;;;;;;5059463;28;20400;-76
2023/05/21 08:31:32;;;;;;;2.30;2.20;;;;;;;;;;5079428;28;20168;-78
2023/05/21 08:33:59;;;;;;;2.17;2.08;;;;;;;;;;5126306;28;20323;-83
2023/05/21 08:36:41;;;;;;;2.17;2.08;;;;;;;;;;5103882;28;20020;-80
2023/05/21 08:39:19;;;;;;;2.50;2.40;;;;;;;;;;5084622;28;20036;-84
2023/05/21 08:41:48;;;;;;;2.45;2.35;;;;;;;;;;5517228;22;20110;-83
2023/05/21 08:44:15;;;;;;;2.38;2.28;;;;;;;;;;5055602;28;20084;-81
2023/05/21 08:46:43;;;;;;;2.58;2.30;;;;;;;;;;5088060;28;20036;-82
2023/05/21 08:49:13;;;;;;;2.30;2.20;;;;;;;;;;5047790;28;20044;-84
2023/05/21 08:51:40;;;;;;;2.60;2.42;;;;;;;;;;5049355;28;20044;-81
2023/05/21 08:54:07;;;;;;;2.40;2.30;;;;;;;;;;5083991;28;20045;-82
2023/05/21 08:56:33;;;;;;;2.65;2.55;;;;;;;;;;5053181;28;20041;-82
2023/05/21 08:58:59;;;;;;;2.53;2.40;;;;;;;;;;5060797;28;20040;-80
2023/05/21 09:01:30;;;;;;;3.25;3.05;;;;;;;;;;5060710;28;20575;-82
2023/05/21 09:04:15;;;;;;;3.00;2.80;;;;;;;;;;5061521;28;20049;-83
2023/05/21 09:06:41;;;;;;;2.85;2.65;;;;;;;;;;5045219;28;20045;-83
2023/05/21 09:09:14;;;;;;;3.00;2.80;;;;;;;;;;5058651;28;20454;-83
2023/05/21 09:11:45;;;;;;;2.17;2.08;;;;;;;;;;5054300;28;20191;-81
2023/05/21 09:14:11;;;;;;;5.38;2.20;;;;;;;;;;5076338;28;20516;-82
2023/05/21 09:17:00;;;;;;;2.80;2.58;;;;;;;;;;5065869;28;20040;-82
2023/05/21 09:19:27;;;;;;;4.03;2.22;;;;;;;;;;5060979;28;20068;-81
2023/05/21 09:21:54;;;;;;;3.25;3.05;;;;;;;;;;5057255;28;20040;-83
2023/05/21 09:24:24;;;;;;;3.53;3.00;;;;;;;;;;5042378;28;20121;-81
2023/05/21 09:26:51;;;;;;;3.10;2.90;;;;;;;;;;5075568;28;20032;-82
2023/05/21 09:29:18;;;;;;;2.45;2.25;;;;;;;;;;5061753;28;20431;-80
2023/05/21 09:31:44;;;;;;;4.38;3.53;;;;;;;;;;5059360;28;20573;-81
2023/05/21 09:34:15;;;;;;;4.10;3.42;;;;;;;;;;5074934;28;20066;-82
2023/05/21 09:36:45;;;;;;;6.18;3.30;;;;;;;;;;5078023;28;20047;-82
2023/05/21 09:39:15;;;;;;;3.72;3.53;;;;;;;;;;5078973;28;20051;-83
2023/05/21 09:41:42;;;;;;;3.10;2.90;;;;;;;;;;5062058;28;20048;-82
2023/05/21 09:44:09;;;;;;;4.82;3.67;;;;;;;;;;5062902;28;20053;-82
2023/05/21 09:46:41;;;;;;;4.20;3.90;;;;;;;;;;5044459;28;20098;-82
2023/05/21 09:49:24;;;;;;;5.00;4.60;;;;;;;;;;5078106;28;20056;-83
2023/05/21 09:51:58;;;;;;;7.20;4.60;;;;;;;;;;5042954;28;20032;-81
2023/05/21 09:54:25;;;;;;;4.50;4.10;;;;;;;;;;5078945;28;20055;-82
2023/05/21 09:56:52;;;;;;;4.53;3.78;;;;;;;;;;5047720;28;20048;-83
2023/05/21 09:59:19;;;;;;;4.68;4.28;;;;;;;;;;5067604;28;20084;-80
2023/05/21 10:01:45;;;;;;;3.97;3.70;;;;;;;;;;5066300;28;20127;-82
2023/05/21 10:04:11;;;;;;;3.97;3.78;;;;;;;;;;5058689;28;20044;-82
2023/05/21 10:06:39;;;;;;;4.50;3.40;;;;;;;;;;5038772;28;20317;-81
2023/05/21 10:09:06;;;;;;;4.80;4.50;;;;;;;;;;5037755;28;20037;-80
2023/05/21 10:11:32;;;;;;;8.18;4.55;;;;;;;;;;5052921;28;20045;-82
2023/05/21 10:14:01;;;;;;;4.25;3.97;;;;;;;;;;5054207;28;20040;-79
2023/05/21 10:16:28;;;;;;;5.95;4.85;;;;;;;;;;5037953;28;20101;-82
2023/05/21 10:18:54;;;;;;;4.70;4.40;;;;;;;;;;5037036;28;20114;-81
2023/05/21 10:21:21;;;;;;;5.47;4.88;;;;;;;;;;5052765;28;20063;-81
2023/05/21 10:23:47;;;;;;;6.40;4.97;;;;;;;;;;5054257;28;20119;-82
2023/05/21 10:26:13;;;;;;;5.53;5.13;;;;;;;;;;5020459;28;20044;-82
2023/05/21 10:28:39;;;;;;;4.60;4.30;;;;;;;;;;5053180;28;20131;-81
2023/05/21 10:31:05;;;;;;;4.85;4.45;;;;;;;;;;5036576;28;20048;-81
2023/05/21 10:33:32;;;;;;;4.70;4.30;;;;;;;;;;5036629;28;20140;-81
2023/05/21 10:35:58;;;;;;;4.32;4.05;;;;;;;;;;5037947;28;20045;-79
2023/05/21 10:38:24;;;;;;;3.28;3.00;;;;;;;;;;5018310;28;20118;-81
2023/05/21 10:40:50;;;;;;;4.03;3.72;;;;;;;;;;5053742;28;20500;-81
2023/05/21 10:43:35;;;;;;;3.70;3.40;;;;;;;;;;5068851;28;20113;-81
2023/05/21 10:46:10;;;;;;;4.43;3.60;;;;;;;;;;5073451;28;20085;-81
2023/05/21 10:48:36;;;;;;;4.07;3.78;;;;;;;;;;5055441;28;20049;-81
2023/05/21 10:51:02;;;;;;;3.70;3.40;;;;;;;;;;5073268;28;20085;-82
2023/05/21 10:53:37;;;;;;;4.40;4.00;;;;;;;;;;5073383;28;20040;-82
2023/05/21 10:56:22;;;;;;;6.20;3.95;;;;;;;;;;5063675;28;20035;-82
2023/05/21 10:59:06;;;;;;;3.58;3.28;;;;;;;;;;5093482;28;20043;-81
2023/05/21 11:01:34;;;;;;;3.25;2.90;;;;;;;;;;5094470;28;20488;-81
2023/05/21 11:04:00;;;;;;;2.40;2.30;;;;;;;;;;5092039;28;20138;-82
2023/05/21 11:06:26;;;;;;;3.13;2.92;;;;;;;;;;5091688;28;20507;-81
2023/05/21 11:08:52;;;;;;;3.28;3.05;;;;;;;;;;5091135;28;20051;-81
2023/05/21 11:11:41;;;;;;;3.05;2.85;;;;;;;;;;5093184;28;20051;-78
2023/05/21 11:14:26;;;;;;;2.50;2.40;;;;;;;;;;5091979;28;20132;-80
2023/05/21 11:16:55;;;;;;;2.83;2.63;;;;;;;;;;5074922;28;20040;-82
2023/05/21 11:19:21;;;;;;;2.55;2.45;;;;;;;;;;5089827;28;20044;-81
2023/05/21 11:21:51;;;;;;;2.50;2.40;;;;;;;;;;5089935;28;20473;-81
2023/05/21 11:24:17;;;;;;;4.43;2.50;;;;;;;;;;5074031;28;20052;-81
2023/05/21 11:26:46;;;;;;;2.58;2.47;;;;;;;;;;5092166;28;20047;-81
2023/05/21 11:29:13;;;;;;;2.63;2.53;;;;;;;;;;5094792;28;20047;-82
2023/05/21 11:31:44;;;;;;;2.85;2.30;;;;;;;;;;5098763;28;20036;-80
2023/05/21 11:34:10;;;;;;;3.03;2.83;;;;;;;;;;5104712;28;20044;-82
2023/05/21 11:36:36;;;;;;;5.65;2.75;;;;;;;;;;5101916;28;20075;-81
2023/05/21 11:39:10;;;;;;;2.67;2.58;;;;;;;;;;5096784;28;20039;-80
2023/05/21 11:42:08;;;;;;;2.70;2.60;;;;;;;;;;5099243;28;20580;-79
2023/05/21 11:44:41;;;;;;;2.92;2.72;;;;;;;;;;5078404;28;20071;-81
2023/05/21 11:47:08;;;;;;;2.97;2.78;;;;;;;;;;5102849;28;20422;-80
2023/05/21 11:49:34;;;;;;;2.30;2.20;;;;;;;;;;5128437;28;20050;-80
2023/05/21 11:52:00;;;;;;;2.75;2.65;;;;;;;;;;5099761;28;20047;-79
2023/05/21 11:54:26;;;;;;;2.72;2.42;;;;;;;;;;5116843;28;20195;-80
2023/05/21 11:56:53;;;;;;;2.03;1.92;;;;;;;;;;5077587;28;20085;-79
2023/05/21 11:59:19;;;;;;;3.00;2.50;;;;;;;;;;5093888;28;20122;-79
2023/05/21 12:01:45;;;;;;;2.85;2.65;;;;;;;;;;5072477;28;20043;-79
2023/05/21 12:04:11;;;;;;;2.85;2.75;;;;;;;;;;5093166;28;20449;-80
2023/05/21 12:06:41;;;;;;;2.78;2.67;;;;;;;;;;5078436;28;20043;-79
2023/05/21 12:09:10;;;;;;;3.03;2.83;;;;;;;;;;5091267;28;20044;-79
2023/05/21 12:11:42;;;;;;;3.03;2.83;;;;;;;;;;5080898;28;20526;-80
2023/05/21 12:14:11;;;;;;;6.07;3.03;;;;;;;;;;5058670;28;20039;-80
2023/05/21 12:16:40;;;;;;;2.72;2.63;;;;;;;;;;5094435;28;20055;-80
2023/05/21 12:19:06;;;;;;;5.38;2.88;;;;;;;;;;5093881;28;20071;-78
2023/05/21 12:21:32;;;;;;;2.90;2.53;;;;;;;;;;5091870;28;20078;-79
2023/05/21 12:23:58;;;;;;;4.55;2.30;;;;;;;;;;5122091;28;20042;-84
2023/05/21 12:26:24;;;;;;;3.50;2.22;;;;;;;;;;5101616;28;20131;-78
2023/05/21 12:28:54;;;;;;;4.70;2.10;;;;;;;;;;5054974;28;20138;-78
2023/05/21 12:31:21;;;;;;;2.70;2.50;;;;;;;;;;5074573;28;20043;-78
2023/05/21 12:33:48;;;;;;;2.58;2.38;;;;;;;;;;5077574;28;20278;-80
2023/05/21 12:36:25;;;;;;;3.47;2.17;;;;;;;;;;5096080;28;20060;-82
2023/05/21 12:38:51;;;;;;;2.33;2.22;;;;;;;;;;5095655;28;20048;-78
2023/05/21 12:41:17;;;;;;;2.28;1.80;;;;;;;;;;5056770;28;20036;-75
2023/05/21 12:43:43;;;;;;;2.40;2.30;;;;;;;;;;5093403;28;20614;-81
2023/05/21 12:46:16;;;;;;;2.60;2.40;;;;;;;;;;5095912;28;20081;-80
2023/05/21 12:48:57;;;;;;;2.63;2.42;;;;;;;;;;5092719;28;20059;-80
2023/05/21 12:51:23;;;;;;;2.90;2.80;;;;;;;;;;5075127;28;20043;-80
2023/05/21 12:53:49;;;;;;;2.67;2.40;;;;;;;;;;5076125;28;20200;-82
2023/05/21 12:56:15;;;;;;;2.92;2.70;;;;;;;;;;5105306;28;20032;-81
2023/05/21 12:58:41;;;;;;;2.15;2.05;;;;;;;;;;5118017;28;20103;-81
2023/05/21 13:01:07;;;;;;;2.50;2.40;;;;;;;;;;5119735;28;20036;-81
2023/05/21 13:03:37;;;;;;;2.80;2.70;;;;;;;;;;5115727;28;20069;-81
2023/05/21 13:06:07;;;;;;;4.80;2.40;;;;;;;;;;5115966;28;20032;-81
2023/05/21 13:08:33;;;;;;;2.42;2.33;;;;;;;;;;5119481;28;20047;-80
2023/05/21 13:11:02;;;;;;;2.50;2.30;;;;;;;;;;5120900;28;20130;-82
2023/05/21 13:13:28;;;;;;;2.40;2.20;;;;;;;;;;5122911;28;20051;-82
2023/05/21 13:15:54;;;;;;;2.38;2.28;;;;;;;;;;5121041;28;20054;-81
2023/05/21 13:18:21;;;;;;;2.30;2.20;;;;;;;;;;5117069;28;20528;-80
2023/05/21 13:20:47;;;;;;;2.70;2.50;;;;;;;;;;5061334;28;20130;-78
2023/05/21 13:23:13;;;;;;;3.00;2.65;;;;;;;;;;5094969;28;20063;-79
2023/05/21 13:25:39;;;;;;;3.10;2.15;;;;;;;;;;5093991;28;20039;-78
2023/05/21 13:28:07;;;;;;;2.42;2.28;;;;;;;;;;5112472;28;20063;-79
2023/05/21 13:30:33;;;;;;;2.70;2.50;;;;;;;;;;5112670;28;20562;-78
2023/05/21 13:32:59;;;;;;;3.10;2.90;;;;;;;;;;5112828;28;20130;-78
2023/05/21 13:35:25;;;;;;;4.15;3.58;;;;;;;;;;5095985;28;20046;-78
2023/05/21 13:37:51;;;;;;;3.67;3.38;;;;;;;;;;5096511;28;20040;-76
2023/05/21 13:40:17;;;;;;;3.42;3.13;;;;;;;;;;5118360;28;20477;-78
2023/05/21 13:42:44;;;;;;;3.50;3.20;;;;;;;;;;5076375;28;20084;-78
2023/05/21 13:45:10;;;;;;;5.35;3.90;;;;;;;;;;5068546;28;20548;-78
2023/05/21 13:47:37;;;;;;;4.43;4.13;;;;;;;;;;5066607;28;20106;-79
2023/05/21 13:50:03;;;;;;;4.13;3.85;;;;;;;;;;5052923;28;20494;-77
2023/05/21 13:52:31;;;;;;;4.50;3.30;;;;;;;;;;5068821;28;20059;-78
2023/05/21 13:54:57;;;;;;;3.60;3.30;;;;;;;;;;5069767;28;20041;-78
2023/05/21 13:57:25;;;;;;;3.78;3.47;;;;;;;;;;5070455;28;20114;-78
2023/05/21 13:59:51;;;;;;;5.00;3.10;;;;;;;;;;5070439;28;20127;-78
2023/05/21 14:02:18;;;;;;;5.10;3.05;;;;;;;;;;5070661;28;20048;-78
2023/05/21 14:04:44;;;;;;;3.78;3.55;;;;;;;;;;5069515;28;20080;-78
2023/05/21 14:07:10;;;;;;;4.38;2.97;;;;;;;;;;5071642;28;20040;-77
2023/05/21 14:09:37;;;;;;;3.10;2.90;;;;;;;;;;5054041;28;20500;-78
2023/05/21 14:12:04;;;;;;;5.40;3.47;;;;;;;;;;5072278;28;20044;-78
2023/05/21 14:14:30;;;;;;;4.38;2.90;;;;;;;;;;5021194;28;20633;-77
2023/05/21 14:16:56;;;;;;;3.17;2.97;;;;;;;;;;5038348;28;20048;-79
2023/05/21 14:19:22;;;;;;;3.75;3.47;;;;;;;;;;5072725;28;20037;-78
2023/05/21 14:21:50;;;;;;;3.08;2.88;;;;;;;;;;5055469;28;20566;-77
2023/05/21 14:24:16;;;;;;;3.38;2.95;;;;;;;;;;5072627;28;20054;-78
2023/05/21 14:26:42;;;;;;;3.20;3.00;;;;;;;;;;5071878;28;20123;-78
2023/05/21 14:29:08;;;;;;;3.50;3.30;;;;;;;;;;5070615;28;20053;-78
2023/05/21 14:31:34;;;;;;;3.28;3.08;;;;;;;;;;5053831;28;20589;-78
2023/05/21 14:34:01;;;;;;;3.00;2.80;;;;;;;;;;5054033;28;20036;-78
2023/05/21 14:36:27;;;;;;;3.15;2.90;;;;;;;;;;5071719;28;20119;-79